createdAt,value
2022-09-23T00:01:25.205Z,76.37
2022-09-23T00:03:51.927Z,76.24
2022-09-23T00:06:25.731Z,77.40
2022-09-23T00:08:52.974Z,75.43
2022-09-23T00:11:22.165Z,75.35
2022-09-23T00:13:52.757Z,77.82
2022-09-23T00:16:23.963Z,77.89
2022-09-23T00:18:55.753Z,78.46
2022-09-23T00:21:24.632Z,77.29
2022-09-23T00:23:51.754Z,76.67
2022-09-23T00:26:20.584Z,76.86
2022-09-23T00:28:48.431Z,77.47
2022-09-23T00:31:26.186Z,76.37
2022-09-23T00:34:04.848Z,75.83
2022-09-23T00:36:32.473Z,76.85
2022-09-23T00:39:12.520Z,78.32
2022-09-23T00:41:40.525Z,77.59
2022-09-23T00:44:45.920Z,76.92
2022-09-23T00:47:52.326Z,78.79
2022-09-23T00:50:42.975Z,77.08
2022-09-23T00:53:15.995Z,76.23
2022-09-23T00:55:49.567Z,77.20
2022-09-23T00:58:22.694Z,77.78
2022-09-23T01:00:52.221Z,77.89
2022-09-23T01:03:20.022Z,78.17
2022-09-23T01:05:47.422Z,78.17
2022-09-23T01:08:16.610Z,77.16
2022-09-23T01:11:11.364Z,78.37
2022-09-23T01:13:43.868Z,78.30
2022-09-23T01:16:35.836Z,78.23
2022-09-23T01:19:27.719Z,76.46
2022-09-23T01:22:19.243Z,77.96
2022-09-23T01:24:49.352Z,77.55
2022-09-23T01:27:31.181Z,76.81
2022-09-23T01:30:09.576Z,76.64
2022-09-23T01:32:43.682Z,76.50
2022-09-23T01:35:30.523Z,76.45
2022-09-23T01:38:12.827Z,77.73
2022-09-23T01:40:52.310Z,77.60
2022-09-23T01:43:26.572Z,76.33
2022-09-23T01:46:00.540Z,78.04
2022-09-23T01:48:42.731Z,80.97
2022-09-23T01:51:16.757Z,79.80
2022-09-23T01:53:54.966Z,83.62
2022-09-23T01:56:31.512Z,79.58
2022-09-23T01:59:37.963Z,79.92
2022-09-23T02:02:20.345Z,79.98
2022-09-23T02:05:10.781Z,78.77
2022-09-23T02:07:46.056Z,78.35
2022-09-23T02:10:20.588Z,78.72
2022-09-23T02:12:57.907Z,79.84
2022-09-23T02:15:33.923Z,78.63
2022-09-23T02:18:12.742Z,79.14
2022-09-23T02:20:42.097Z,78.85
2022-09-23T02:23:23.197Z,78.62
2022-09-23T02:25:59.204Z,78.82
2022-09-23T02:28:37.540Z,78.48
2022-09-23T02:31:17.715Z,78.37
2022-09-23T02:33:56.883Z,78.36
2022-09-23T02:36:54.934Z,79.37
2022-09-23T02:39:27.068Z,78.93
2022-09-23T02:42:04.589Z,78.88
2022-09-23T02:44:41.277Z,78.85
2022-09-23T02:47:10.991Z,79.08
2022-09-23T02:49:37.909Z,79.20
2022-09-23T02:52:07.811Z,79.72
2022-09-23T02:54:37.644Z,79.41
2022-09-23T02:57:09.594Z,78.52
2022-09-23T02:59:39.065Z,78.32
2022-09-23T03:02:14.360Z,78.89
2022-09-23T03:04:46.287Z,79.00
2022-09-23T03:07:56.096Z,79.13
2022-09-23T03:10:25.162Z,79.01
2022-09-23T03:13:06.455Z,80.01
2022-09-23T03:15:44.138Z,78.44
2022-09-23T03:18:20.401Z,79.19
2022-09-23T03:20:52.764Z,80.33
2022-09-23T03:23:26.412Z,79.34
2022-09-23T03:25:59.489Z,78.80
2022-09-23T03:28:31.165Z,79.69
2022-09-23T03:31:04.831Z,79.38
2022-09-23T03:33:35.258Z,79.33
2022-09-23T03:36:26.996Z,79.51
2022-09-23T03:39:03.807Z,79.71
2022-09-23T03:41:38.093Z,80.45
2022-09-23T03:44:11.044Z,78.88
2022-09-23T03:46:43.010Z,79.24
2022-09-23T03:49:22.493Z,79.83
2022-09-23T03:51:49.127Z,78.80
2022-09-23T03:54:15.882Z,78.89
2022-09-23T03:56:42.573Z,80.67
2022-09-23T03:59:09.823Z,80.46
2022-09-23T04:01:38.667Z,79.63
2022-09-23T04:04:05.583Z,80.12
2022-09-23T04:06:32.432Z,79.18
2022-09-23T04:08:59.284Z,79.21
2022-09-23T04:11:26.074Z,79.10
2022-09-23T04:13:54.977Z,79.65
2022-09-23T04:16:22.399Z,79.44
2022-09-23T04:18:54.083Z,79.41
2022-09-23T04:21:24.166Z,79.27
2022-09-23T04:23:55.472Z,79.73
2022-09-23T04:26:22.262Z,79.75
2022-09-23T04:28:49.171Z,79.49
2022-09-23T04:31:18.779Z,80.35
2022-09-23T04:33:48.335Z,79.91
2022-09-23T04:36:15.388Z,79.83
2022-09-23T04:38:46.652Z,78.99
2022-09-23T04:41:16.175Z,78.77
2022-09-23T04:43:46.472Z,79.23
2022-09-23T04:46:17.201Z,79.01
2022-09-23T04:48:49.617Z,79.33
2022-09-23T04:51:21.789Z,79.38
2022-09-23T04:53:50.397Z,80.47
2022-09-23T04:56:23.012Z,79.77
2022-09-23T04:58:52.920Z,79.73
2022-09-23T05:03:59.905Z,79.47
2022-09-23T05:06:26.359Z,79.95
2022-09-23T05:08:56.357Z,79.89
2022-09-23T05:11:24.445Z,81.18
2022-09-23T05:13:57.325Z,79.70
2022-09-23T05:16:24.531Z,82.12
2022-09-23T05:18:52.440Z,80.90
2022-09-23T05:21:21.631Z,81.16
2022-09-23T05:23:54.955Z,80.98
2022-09-23T05:26:23.539Z,80.47
2022-09-23T05:28:50.085Z,80.62
2022-09-23T05:31:22.192Z,81.52
2022-09-23T05:33:57.485Z,82.44
2022-09-23T05:36:25.537Z,80.85
2022-09-23T05:38:53.514Z,81.97
2022-09-23T05:41:22.903Z,80.45
2022-09-23T05:43:51.706Z,81.40
2022-09-23T05:46:20.930Z,81.69
2022-09-23T05:48:47.486Z,81.66
2022-09-23T05:51:20.811Z,80.98
2022-09-23T05:53:50.790Z,80.91
2022-09-23T05:56:19.673Z,80.76
2022-09-23T05:58:48.332Z,81.83
2022-09-23T06:01:18.260Z,81.35
2022-09-23T06:03:52.312Z,82.77
2022-09-23T06:06:21.121Z,83.29
2022-09-23T06:08:47.928Z,82.48
2022-09-23T06:11:14.613Z,82.86
2022-09-23T06:13:41.642Z,82.07
2022-09-23T06:16:13.750Z,82.76
2022-09-23T06:18:42.094Z,81.83
2022-09-23T06:21:11.936Z,81.77
2022-09-23T06:23:42.298Z,81.77
2022-09-23T06:26:11.498Z,81.18
2022-09-23T06:28:40.389Z,80.67
2022-09-23T06:31:13.973Z,81.88
2022-09-23T06:33:42.646Z,80.96
2022-09-23T06:36:10.295Z,80.69
2022-09-23T06:38:41.737Z,81.94
2022-09-23T06:41:08.331Z,81.13
2022-09-23T06:43:34.964Z,81.10
2022-09-23T06:46:04.218Z,80.87
2022-09-23T06:48:36.974Z,80.63
2022-09-23T06:51:07.202Z,80.93
2022-09-23T06:53:34.361Z,80.39
2022-09-23T06:56:08.334Z,80.79
2022-09-23T06:58:36.356Z,80.56
2022-09-23T07:01:08.214Z,79.70
2022-09-23T07:03:36.036Z,80.53
2022-09-23T07:06:03.402Z,80.45
2022-09-23T07:08:30.957Z,80.14
2022-09-23T07:10:59.397Z,80.28
2022-09-23T07:13:26.781Z,79.51
2022-09-23T07:16:01.888Z,78.93
2022-09-23T07:18:36.475Z,78.39
2022-09-23T07:21:06.957Z,77.85
2022-09-23T07:23:33.620Z,76.76
2022-09-23T07:26:00.793Z,76.65
2022-09-23T07:28:29.865Z,75.98
2022-09-23T07:31:00.229Z,75.48
2022-09-23T07:33:33.823Z,74.35
2022-09-23T07:36:08.605Z,73.83
2022-09-23T07:38:35.966Z,73.54
2022-09-23T07:41:08.959Z,72.43
2022-09-23T07:43:39.847Z,70.67
2022-09-23T07:46:09.692Z,70.46
2022-09-23T07:48:37.216Z,69.43
2022-09-23T07:51:08.209Z,69.42
2022-09-23T07:53:34.762Z,69.13
2022-09-23T07:56:01.502Z,68.33
2022-09-23T07:58:28.058Z,68.08
2022-09-23T08:00:54.501Z,67.54
2022-09-23T08:03:21.213Z,68.12
2022-09-23T08:05:47.747Z,66.93
2022-09-23T08:08:14.313Z,66.82
2022-09-23T08:10:40.868Z,65.48
2022-09-23T08:13:07.424Z,65.27
2022-09-23T08:15:34.263Z,64.79
2022-09-23T08:18:01.203Z,64.11
2022-09-23T08:23:33.631Z,63.76
2022-09-23T08:26:11.753Z,63.85
2022-09-23T08:28:45.126Z,63.00
2022-09-23T08:31:14.127Z,61.76
2022-09-23T08:33:41.068Z,61.49
2022-09-23T08:36:08.072Z,60.73
2022-09-23T08:38:37.104Z,60.77
2022-09-23T08:41:20.553Z,60.46
2022-09-23T08:43:51.544Z,60.02
2022-09-23T08:46:25.870Z,60.48
2022-09-23T08:48:53.575Z,59.53
2022-09-23T08:51:29.269Z,58.89
2022-09-23T08:53:55.900Z,59.61
2022-09-23T08:56:25.389Z,58.26
2022-09-23T08:59:17.790Z,58.14
2022-09-23T09:01:48.112Z,57.34
2022-09-23T09:04:26.475Z,56.62
2022-09-23T09:07:12.414Z,56.00
2022-09-23T09:09:51.316Z,55.92
2022-09-23T09:12:22.717Z,55.22
2022-09-23T09:15:03.226Z,54.09
2022-09-23T09:17:38.332Z,54.51
2022-09-23T09:20:29.408Z,54.83
2022-09-23T09:22:59.801Z,54.07
2022-09-23T09:25:49.979Z,53.26
2022-09-23T09:28:22.437Z,53.37
2022-09-23T09:30:55.487Z,51.87
2022-09-23T09:33:30.511Z,51.08
2022-09-23T09:36:20.008Z,51.53
2022-09-23T09:38:46.789Z,50.54
2022-09-23T09:41:18.365Z,50.17
2022-09-23T09:43:57.546Z,50.35
2022-09-23T09:46:39.321Z,49.88
2022-09-23T09:49:14.915Z,50.51
2022-09-23T09:51:42.521Z,48.77
2022-09-23T09:54:27.360Z,48.99
2022-09-23T09:56:54.621Z,48.43
2022-09-23T09:59:27.418Z,48.31
2022-09-23T10:02:32.890Z,47.50
2022-09-23T10:05:06.092Z,46.99
2022-09-23T10:07:34.432Z,47.56
2022-09-23T10:10:33.294Z,47.17
2022-09-23T10:13:15.227Z,47.09
2022-09-23T10:15:45.215Z,43.37
2022-09-23T10:18:20.261Z,43.27
2022-09-23T10:20:48.063Z,43.23
2022-09-23T10:23:28.258Z,42.60
2022-09-23T10:26:00.708Z,44.01
2022-09-23T10:28:43.377Z,42.77
2022-09-23T10:31:13.915Z,40.99
2022-09-23T10:33:49.379Z,42.01
2022-09-23T10:36:17.888Z,43.31
2022-09-23T10:38:48.676Z,42.49
2022-09-23T10:42:02.396Z,42.92
2022-09-23T10:45:05.470Z,42.67
2022-09-23T10:47:47.881Z,40.21
2022-09-23T10:50:38.531Z,40.98
2022-09-23T10:53:28.419Z,39.54
2022-09-23T10:56:18.917Z,40.36
2022-09-23T10:59:12.266Z,39.20
2022-09-23T11:01:54.143Z,40.56
2022-09-23T11:04:29.734Z,41.21
2022-09-23T11:07:38.044Z,41.01
2022-09-23T11:10:46.542Z,40.60
2022-09-23T11:13:29.967Z,41.39
2022-09-23T11:16:25.115Z,39.15
2022-09-23T11:19:07.742Z,39.17
2022-09-23T11:22:09.697Z,39.86
2022-09-23T11:25:01.767Z,38.82
2022-09-23T11:28:03.848Z,38.57
2022-09-23T11:31:06.323Z,38.73
2022-09-23T11:33:52.793Z,38.73
2022-09-23T11:36:37.984Z,38.82
2022-09-23T11:39:31.269Z,39.08
2022-09-23T11:42:00.826Z,39.19
2022-09-23T11:44:39.591Z,39.51
2022-09-23T11:47:15.693Z,39.34
2022-09-23T11:50:05.038Z,39.05
2022-09-23T11:52:44.056Z,39.03
2022-09-23T11:55:22.564Z,38.75
2022-09-23T11:57:52.824Z,38.62
2022-09-23T12:00:23.258Z,39.21
2022-09-23T12:03:42.460Z,38.67
2022-09-23T12:06:19.516Z,38.57
2022-09-23T12:08:53.609Z,38.08
2022-09-23T12:11:32.062Z,37.13
2022-09-23T12:14:19.455Z,37.03
2022-09-23T12:17:07.052Z,37.32
2022-09-23T12:19:56.149Z,36.29
2022-09-23T12:22:41.457Z,36.93
2022-09-23T12:25:27.727Z,36.42
2022-09-23T12:28:00.892Z,35.41
2022-09-23T12:30:32.045Z,35.88
2022-09-23T12:33:14.809Z,35.65
2022-09-23T12:35:45.392Z,35.63
2022-09-23T12:38:14.286Z,35.87
2022-09-23T12:40:45.516Z,35.12
2022-09-23T12:43:35.654Z,34.66
2022-09-23T12:46:25.897Z,34.49
2022-09-23T12:48:58.361Z,34.61
2022-09-23T12:51:27.013Z,34.44
2022-09-23T12:53:55.800Z,35.45
2022-09-23T12:56:26.494Z,34.80
2022-09-23T12:58:59.773Z,34.94
2022-09-23T13:01:27.215Z,34.13
2022-09-23T13:04:14.401Z,33.59
2022-09-23T13:06:57.412Z,32.75
2022-09-23T13:09:30.026Z,32.22
2022-09-23T13:12:01.081Z,33.48
2022-09-23T13:14:29.890Z,34.40
2022-09-23T13:16:58.500Z,32.73
2022-09-23T13:19:28.043Z,30.46
2022-09-23T13:21:54.397Z,32.61
2022-09-23T13:24:24.953Z,32.09
2022-09-23T13:26:55.029Z,31.85
2022-09-23T13:29:33.388Z,32.51
2022-09-23T13:32:02.579Z,32.05
2022-09-23T13:34:32.807Z,32.63
2022-09-23T13:37:20.145Z,32.39
2022-09-23T13:39:48.834Z,32.81
2022-09-23T13:42:28.585Z,32.76
2022-09-23T13:44:57.691Z,32.65
2022-09-23T13:47:27.674Z,33.26
2022-09-23T13:49:54.725Z,33.03
2022-09-23T13:52:31.480Z,32.70
2022-09-23T13:54:57.997Z,31.71
2022-09-23T13:57:34.922Z,32.17
2022-09-23T14:00:19.141Z,33.70
2022-09-23T14:02:46.951Z,34.27
2022-09-23T14:05:21.595Z,33.99
2022-09-23T14:07:50.827Z,33.32
2022-09-23T14:10:21.308Z,34.17
2022-09-23T14:12:50.404Z,35.25
2022-09-23T14:15:19.489Z,35.26
2022-09-23T14:17:54.079Z,34.37
2022-09-23T14:20:22.166Z,34.25
2022-09-23T14:22:48.648Z,34.10
2022-09-23T14:25:17.481Z,34.32
2022-09-23T14:27:44.970Z,34.56
2022-09-23T14:30:17.885Z,34.74
2022-09-23T14:32:47.341Z,34.27
2022-09-23T14:35:24.069Z,34.68
2022-09-23T14:38:12.973Z,34.01
2022-09-23T14:41:15.582Z,33.83
2022-09-23T14:44:04.542Z,34.96
2022-09-23T14:46:34.922Z,35.20
2022-09-23T14:49:10.663Z,34.88
2022-09-23T14:51:55.431Z,35.00
2022-09-23T14:54:23.378Z,35.07
2022-09-23T14:56:50.446Z,35.15
2022-09-23T14:59:31.504Z,35.56
2022-09-23T15:01:58.231Z,35.41
2022-09-23T15:04:24.611Z,34.75
2022-09-23T15:06:55.374Z,35.84
2022-09-23T15:09:33.367Z,36.12
2022-09-23T15:12:04.528Z,36.34
2022-09-23T15:14:42.965Z,36.08
2022-09-23T15:17:30.225Z,36.22
2022-09-23T15:20:00.642Z,36.33
2022-09-23T15:22:28.038Z,36.89
2022-09-23T15:25:09.178Z,37.25
2022-09-23T15:27:36.559Z,37.32
2022-09-23T15:30:28.434Z,37.37
2022-09-23T15:32:56.462Z,37.28
2022-09-23T15:35:35.189Z,37.45
2022-09-23T15:38:04.528Z,37.64
2022-09-23T15:40:33.715Z,37.74
2022-09-23T15:43:24.961Z,37.07
2022-09-23T15:46:07.629Z,37.68
2022-09-23T15:48:40.311Z,38.16
2022-09-23T15:51:11.039Z,37.93
2022-09-23T15:53:40.101Z,38.13
2022-09-23T15:56:07.499Z,38.14
2022-09-23T15:58:34.190Z,38.15
2022-09-23T16:01:04.768Z,38.00
2022-09-23T16:03:31.685Z,38.12
2022-09-23T16:06:01.397Z,38.40
2022-09-23T16:08:33.060Z,38.35
2022-09-23T16:11:01.885Z,38.52
2022-09-23T16:13:31.327Z,38.81
2022-09-23T16:16:01.179Z,37.92
2022-09-23T16:18:27.688Z,37.25
2022-09-23T16:20:54.648Z,35.90
2022-09-23T16:23:38.793Z,36.81
2022-09-23T16:26:05.427Z,37.42
2022-09-23T16:28:34.311Z,37.89
2022-09-23T16:31:04.103Z,38.14
2022-09-23T16:33:30.808Z,38.61
2022-09-23T16:36:00.768Z,39.42
2022-09-23T16:38:28.931Z,39.53
2022-09-23T16:41:00.696Z,39.72
2022-09-23T16:43:32.601Z,40.42
2022-09-23T16:45:59.119Z,40.38
2022-09-23T16:48:25.624Z,40.92
2022-09-23T16:50:53.897Z,41.25
2022-09-23T16:53:21.109Z,41.12
2022-09-23T16:55:47.455Z,41.69
2022-09-23T16:58:13.831Z,41.55
2022-09-23T17:00:58.839Z,41.54
2022-09-23T17:03:40.802Z,41.96
2022-09-23T17:06:10.299Z,42.59
2022-09-23T17:08:38.246Z,44.48
2022-09-23T17:11:05.304Z,45.69
2022-09-23T17:13:32.440Z,45.67
2022-09-23T17:15:59.515Z,46.44
2022-09-23T17:18:26.935Z,47.19
2022-09-23T17:21:01.785Z,47.64
2022-09-23T17:23:29.565Z,47.63
2022-09-23T17:25:59.798Z,49.06
2022-09-23T17:28:32.182Z,49.73
2022-09-23T17:31:00.632Z,48.83
2022-09-23T17:33:29.168Z,50.34
2022-09-23T17:35:56.938Z,49.41
2022-09-23T17:38:29.385Z,49.27
2022-09-23T17:40:58.995Z,51.40
2022-09-23T17:43:25.782Z,52.37
2022-09-23T17:45:57.166Z,51.65
2022-09-23T17:48:25.332Z,52.24
2022-09-23T17:51:02.035Z,52.20
2022-09-23T17:53:36.926Z,53.96
2022-09-23T17:56:11.487Z,54.52
2022-09-23T17:58:38.430Z,54.54
2022-09-23T18:01:09.779Z,54.87
2022-09-23T18:03:36.415Z,54.76
2022-09-23T18:06:13.185Z,56.08
2022-09-23T18:08:41.294Z,57.74
2022-09-23T18:11:15.904Z,56.08
2022-09-23T18:13:46.525Z,55.81
2022-09-23T18:16:12.969Z,54.58
2022-09-23T18:18:39.503Z,57.52
2022-09-23T18:21:07.561Z,58.49
2022-09-23T18:23:33.933Z,58.79
2022-09-23T18:26:03.470Z,59.75
2022-09-23T18:28:34.658Z,58.61
2022-09-23T18:31:01.608Z,60.37
2022-09-23T18:33:28.047Z,60.03
2022-09-23T18:35:54.543Z,61.60
2022-09-23T18:38:21.077Z,60.70
2022-09-23T18:40:56.801Z,60.39
2022-09-23T18:43:29.551Z,60.18
2022-09-23T18:46:01.460Z,61.58
2022-09-23T18:48:48.013Z,60.84
2022-09-23T18:51:16.649Z,61.06
2022-09-23T18:53:50.049Z,61.42
2022-09-23T18:57:01.490Z,62.64
2022-09-23T18:59:29.313Z,62.62
2022-09-23T19:01:56.952Z,62.12
2022-09-23T19:04:25.434Z,60.21
2022-09-23T19:06:53.555Z,61.70
2022-09-23T19:09:20.059Z,62.14
2022-09-23T19:11:54.895Z,63.00
2022-09-23T19:14:21.498Z,62.23
2022-09-23T19:16:49.497Z,60.84
2022-09-23T19:19:16.146Z,62.09
2022-09-23T19:21:42.566Z,62.19
2022-09-23T19:24:14.381Z,60.45
2022-09-23T19:26:42.014Z,60.81
2022-09-23T19:29:15.220Z,60.92
2022-09-23T19:31:44.113Z,61.09
2022-09-23T19:34:24.618Z,63.33
2022-09-23T19:36:52.664Z,64.03
2022-09-23T19:39:22.138Z,62.81
2022-09-23T19:41:49.940Z,63.74
2022-09-23T19:44:16.902Z,63.38
2022-09-23T19:46:45.453Z,64.35
2022-09-23T19:49:12.866Z,62.09
2022-09-23T19:51:40.226Z,63.92
2022-09-23T19:54:08.034Z,62.67
2022-09-23T19:56:35.463Z,64.23
2022-09-23T19:59:05.894Z,62.50
2022-09-23T20:01:32.406Z,62.49
2022-09-23T20:04:02.237Z,65.80
2022-09-23T20:06:33.885Z,66.10
2022-09-23T20:09:01.134Z,65.01
2022-09-23T20:11:28.825Z,66.12
2022-09-23T20:14:01.094Z,65.64
2022-09-23T20:16:31.823Z,65.70
2022-09-23T20:19:01.893Z,65.15
2022-09-23T20:21:29.265Z,66.23
2022-09-23T20:23:57.219Z,65.24
2022-09-23T20:26:42.230Z,66.97
2022-09-23T20:29:10.746Z,65.75
2022-09-23T20:31:39.654Z,66.11
2022-09-23T20:34:07.146Z,67.11
2022-09-23T20:36:35.438Z,66.61
2022-09-23T20:39:05.802Z,67.84
2022-09-23T20:41:37.247Z,67.90
2022-09-23T20:44:06.352Z,67.24
2022-09-23T20:46:34.247Z,68.33
2022-09-23T20:49:06.529Z,67.27
2022-09-23T20:51:33.457Z,68.81
2022-09-23T20:54:00.498Z,68.20
2022-09-23T20:56:27.512Z,68.51
2022-09-23T20:58:54.149Z,68.68
2022-09-23T21:01:21.311Z,67.55
2022-09-23T21:03:50.296Z,68.20
2022-09-23T21:06:19.044Z,67.37
2022-09-23T21:08:46.456Z,68.80
2022-09-23T21:11:15.711Z,69.20
2022-09-23T21:13:53.104Z,69.04
2022-09-23T21:16:24.640Z,69.28
2022-09-23T21:18:54.726Z,69.20
2022-09-23T21:21:22.352Z,69.69
2022-09-23T21:23:51.627Z,69.32
2022-09-23T21:26:23.440Z,69.95
2022-09-23T21:28:52.613Z,69.66
2022-09-23T21:31:41.350Z,69.95
2022-09-23T21:34:11.132Z,71.15
2022-09-23T21:36:39.239Z,69.89
2022-09-23T21:39:07.118Z,70.44
2022-09-23T21:41:33.741Z,70.28
2022-09-23T21:44:02.760Z,70.82
2022-09-23T21:46:35.846Z,70.60
2022-09-23T21:49:05.750Z,70.80
2022-09-23T21:51:40.465Z,70.93
2022-09-23T21:54:15.686Z,70.69
2022-09-23T21:56:42.805Z,70.51
2022-09-23T21:59:10.449Z,71.04
2022-09-23T22:01:40.158Z,71.08
2022-09-23T22:04:13.307Z,70.99
2022-09-23T22:06:40.493Z,70.67
2022-09-23T22:09:12.849Z,70.89
2022-09-23T22:11:59.029Z,71.17
2022-09-23T22:14:28.488Z,71.48
2022-09-23T22:16:57.558Z,71.59
2022-09-23T22:19:26.762Z,71.21
2022-09-23T22:21:53.929Z,71.45
2022-09-23T22:24:20.428Z,71.07
2022-09-23T22:26:49.845Z,71.62
2022-09-23T22:29:35.262Z,71.79
2022-09-23T22:32:27.186Z,71.09
2022-09-23T22:34:54.891Z,71.28
2022-09-23T22:37:32.660Z,71.83
2022-09-23T22:40:00.724Z,71.54
2022-09-23T22:42:28.306Z,72.01
2022-09-23T22:44:58.319Z,71.38
2022-09-23T22:47:25.595Z,70.44
2022-09-23T22:49:55.792Z,72.07
2022-09-23T22:52:24.893Z,71.70
2022-09-23T22:54:55.485Z,71.83
2022-09-23T22:57:22.536Z,72.26
2022-09-23T22:59:49.731Z,71.42
2022-09-23T23:02:23.778Z,71.56
2022-09-23T23:04:51.132Z,72.34
2022-09-23T23:07:26.127Z,72.20
2022-09-23T23:09:58.737Z,71.36
2022-09-23T23:12:26.070Z,72.13
2022-09-23T23:14:53.079Z,72.05
2022-09-23T23:17:20.409Z,71.50
2022-09-23T23:19:47.871Z,71.39
2022-09-23T23:23:35.568Z,71.16
2022-09-23T23:26:15.077Z,71.66
2022-09-23T23:47:36.762Z,72.58
2022-09-23T23:50:37.942Z,73.64
2022-09-23T23:53:36.087Z,72.08
2022-09-23T23:56:27.337Z,72.85
